Time;durP1;ratioP1;P1;durP2;ratioP2;P2;SDS_P1;SDS_P2;PMS_P1;PMS_P2;Temp;Humidity;BMP_temperature;BMP_pressure;BME280_temperature;BME280_humidity;BME280_pressure;Samples;Min_cycle;Max_cycle;Signal;HPM_P1;HPM_P2
2022/03/22 00:02:17;;;;;;;4.20;1.80;;;20.10;56.90;;;;;;5016955;28;20025;-59
2022/03/22 00:04:42;;;;;;;4.97;2.10;;;20.10;56.80;;;;;;5014220;28;20060;-59
2022/03/22 00:07:08;;;;;;;3.97;1.92;;;20.10;56.80;;;;;;5020168;28;20017;-59
2022/03/22 00:09:34;;;;;;;3.83;1.90;;;20.00;56.70;;;;;;5019997;28;20034;-59
2022/03/22 00:12:00;;;;;;;5.78;1.98;;;20.00;56.80;;;;;;5019799;28;20025;-59
2022/03/22 00:14:26;;;;;;;5.28;2.00;;;20.00;56.80;;;;;;5023183;28;20492;-59
2022/03/22 00:16:53;;;;;;;4.00;1.90;;;20.00;56.80;;;;;;5017116;28;20482;-59
2022/03/22 00:19:19;;;;;;;3.65;1.92;;;20.00;56.80;;;;;;5047897;28;20117;-59
2022/03/22 00:21:46;;;;;;;6.00;2.05;;;20.00;56.80;;;;;;5015008;28;20057;-59
2022/03/22 00:24:11;;;;;;;5.18;1.88;;;20.00;56.80;;;;;;5021467;28;20057;-59
2022/03/22 00:26:37;;;;;;;3.65;1.98;;;20.00;56.80;;;;;;5016701;28;20053;-59
2022/03/22 00:29:03;;;;;;;4.53;1.88;;;19.90;56.80;;;;;;5020507;28;20029;-59
2022/03/22 00:31:32;;;;;;;3.47;1.75;;;19.90;56.80;;;;;;5015809;28;20051;-59
2022/03/22 00:33:57;;;;;;;4.32;2.00;;;19.90;56.80;;;;;;5015754;28;20029;-59
2022/03/22 00:36:23;;;;;;;3.83;1.90;;;19.90;56.80;;;;;;5014733;28;20029;-59
2022/03/22 00:38:49;;;;;;;2.78;1.70;;;19.90;56.80;;;;;;5046985;28;20057;-59
2022/03/22 00:41:16;;;;;;;4.32;1.70;;;19.90;56.80;;;;;;5015293;28;20088;-59
2022/03/22 00:43:46;;;;;;;3.80;1.90;;;19.90;56.90;;;;;;5014524;28;20049;-59
2022/03/22 00:46:12;;;;;;;3.50;1.70;;;19.90;56.90;;;;;;5014538;28;20041;-59
2022/03/22 00:48:38;;;;;;;2.47;1.60;;;19.90;56.80;;;;;;5022516;28;20040;-59
2022/03/22 00:51:04;;;;;;;4.68;2.13;;;19.90;56.80;;;;;;5015107;28;20030;-59
2022/03/22 00:53:30;;;;;;;4.18;2.17;;;19.90;56.90;;;;;;5014951;28;20021;-59
2022/03/22 00:55:55;;;;;;;3.72;1.85;;;19.80;56.80;;;;;;5009779;28;20130;-59
2022/03/22 00:58:21;;;;;;;5.32;1.90;;;19.80;56.90;;;;;;5018647;28;20022;-59
2022/03/22 01:00:47;;;;;;;4.13;1.90;;;19.80;56.80;;;;;;5014802;28;20030;-59
2022/03/22 01:03:13;;;;;;;3.90;1.90;;;19.80;56.90;;;;;;5018225;28;20037;-59
2022/03/22 01:05:39;;;;;;;4.78;2.10;;;19.80;56.90;;;;;;5015736;28;20033;-59
2022/03/22 01:08:05;;;;;;;3.20;1.73;;;19.80;56.90;;;;;;5014566;28;20049;-59
2022/03/22 01:10:32;;;;;;;3.97;1.98;;;19.80;56.90;;;;;;5020774;28;20768;-59
2022/03/22 01:12:58;;;;;;;3.92;1.83;;;19.80;56.90;;;;;;5022490;28;20030;-59
2022/03/22 01:15:26;;;;;;;3.35;1.70;;;19.80;57.90;;;;;;5012144;28;20050;-59
2022/03/22 01:17:54;;;;;;;2.88;1.90;;;19.80;56.80;;;;;;5020824;28;20033;-59
2022/03/22 01:20:20;;;;;;;3.25;1.92;;;19.80;56.80;;;;;;5012306;28;20022;-59
2022/03/22 01:22:47;;;;;;;3.20;1.80;;;19.70;56.80;;;;;;5012935;28;20072;-59
2022/03/22 01:25:18;;;;;;;2.92;1.70;;;19.70;56.70;;;;;;5013622;28;20092;-59
2022/03/22 01:27:48;;;;;;;2.92;1.70;;;19.70;56.80;;;;;;5018098;28;20030;-59
2022/03/22 01:30:15;;;;;;;3.88;2.00;;;19.70;56.80;;;;;;5048031;28;20030;-59
2022/03/22 01:32:41;;;;;;;4.85;1.85;;;19.70;56.80;;;;;;5021970;28;20029;-59
2022/03/22 01:35:10;;;;;;;3.85;2.10;;;19.70;57.90;;;;;;5017682;28;20445;-59
2022/03/22 01:37:37;;;;;;;3.88;1.90;;;19.70;56.80;;;;;;5013973;28;20029;-59
2022/03/22 01:40:04;;;;;;;4.28;2.30;;;19.70;56.80;;;;;;5018465;28;20025;-59
2022/03/22 01:42:29;;;;;;;3.75;2.00;;;19.70;56.80;;;;;;5027185;28;20041;-59
2022/03/22 01:44:55;;;;;;;3.92;1.98;;;19.70;56.90;;;;;;5019500;28;20498;-59
2022/03/22 01:47:25;;;;;;;3.35;1.90;;;19.70;56.90;;;;;;5021099;28;20054;-59
2022/03/22 01:49:51;;;;;;;3.25;1.98;;;19.70;56.90;;;;;;5022149;28;20403;-59
2022/03/22 01:52:24;;;;;;;3.80;1.80;;;19.60;56.90;;;;;;5021775;28;20379;-59
2022/03/22 01:54:51;;;;;;;3.67;1.88;;;19.60;56.80;;;;;;5019731;28;20042;-59
2022/03/22 01:57:17;;;;;;;4.40;2.00;;;19.70;56.80;;;;;;5020698;28;20025;-59
2022/03/22 01:59:46;;;;;;;3.40;1.80;;;19.60;56.80;;;;;;5022003;28;20056;-59
2022/03/22 02:07:40;;;;;;;3.78;1.92;;;19.60;56.70;;;;;;5014011;28;20041;-59
2022/03/22 02:10:06;;;;;;;3.75;2.00;;;19.60;56.80;;;;;;5048600;28;20026;-59
2022/03/22 02:12:32;;;;;;;3.58;1.90;;;19.60;56.80;;;;;;5021487;28;20449;-59
2022/03/22 02:14:58;;;;;;;3.13;1.80;;;19.60;56.80;;;;;;5017252;28;20052;-59
2022/03/22 02:17:23;;;;;;;3.10;1.80;;;19.60;56.80;;;;;;5012832;28;20080;-59
2022/03/22 02:19:49;;;;;;;4.72;2.00;;;19.60;56.80;;;;;;5014285;28;20044;-59
2022/03/22 02:22:19;;;;;;;4.93;1.80;;;19.50;56.70;;;;;;5013158;28;20026;-59
2022/03/22 02:24:45;;;;;;;3.17;1.90;;;19.50;56.70;;;;;;5017174;28;20327;-59
2022/03/22 02:27:10;;;;;;;3.78;1.80;;;19.50;56.70;;;;;;5018114;28;20552;-59
2022/03/22 02:29:36;;;;;;;3.50;2.00;;;19.50;56.70;;;;;;5014912;28;20029;-59
2022/03/22 02:32:03;;;;;;;4.72;1.98;;;19.50;56.80;;;;;;5015709;28;20029;-59
2022/03/22 02:34:28;;;;;;;4.32;2.22;;;19.50;56.80;;;;;;5013588;28;20017;-59
2022/03/22 02:36:54;;;;;;;5.07;2.08;;;19.50;56.80;;;;;;5013678;28;20107;-59
2022/03/22 02:39:20;;;;;;;4.72;1.85;;;19.50;56.80;;;;;;5020323;28;20033;-59
2022/03/22 02:41:50;;;;;;;4.47;2.08;;;19.50;56.80;;;;;;5016101;28;20029;-59
2022/03/22 02:44:16;;;;;;;3.22;1.90;;;19.50;56.80;;;;;;5017840;28;20036;-59
2022/03/22 02:46:41;;;;;;;4.35;2.00;;;19.50;56.70;;;;;;5013163;28;20029;-59
2022/03/22 02:49:11;;;;;;;3.88;2.17;;;19.50;56.70;;;;;;5018900;28;20730;-59
2022/03/22 02:51:37;;;;;;;3.60;2.00;;;19.40;56.70;;;;;;5015635;28;20030;-59
2022/03/22 02:54:02;;;;;;;4.07;2.20;;;19.50;56.70;;;;;;5017094;28;20467;-59
2022/03/22 02:56:28;;;;;;;3.85;2.10;;;19.40;56.50;;;;;;5023045;28;20112;-59
2022/03/22 02:58:53;;;;;;;4.03;1.98;;;19.40;56.40;;;;;;5016007;28;20021;-59
2022/03/22 03:01:19;;;;;;;3.78;2.22;;;19.40;56.50;;;;;;5020020;28;20104;-59
2022/03/22 03:03:45;;;;;;;3.20;1.75;;;19.40;56.60;;;;;;5021429;28;20490;-59
2022/03/22 03:06:12;;;;;;;4.30;2.10;;;19.40;56.60;;;;;;5015707;28;20273;-59
2022/03/22 03:08:37;;;;;;;3.40;2.00;;;19.40;56.50;;;;;;5018750;28;20034;-59
2022/03/22 03:11:03;;;;;;;4.82;2.28;;;19.40;56.50;;;;;;5016363;28;20017;-59
2022/03/22 03:14:38;;;;;;;3.60;2.10;;;19.40;56.50;;;;;;5011691;28;20029;-59
2022/03/22 03:16:14;;;;;;;3.70;2.28;;;19.40;56.60;;;;;;5012762;28;20029;-59
2022/03/22 03:18:40;;;;;;;4.90;2.22;;;19.40;56.60;;;;;;5018636;28;20036;-59
2022/03/22 03:21:05;;;;;;;4.18;2.20;;;19.40;57.60;;;;;;5018046;28;20140;-59
2022/03/22 03:23:31;;;;;;;4.68;2.05;;;19.30;56.50;;;;;;5013428;28;20061;-59
2022/03/22 03:25:57;;;;;;;3.20;2.08;;;19.40;56.60;;;;;;5044854;28;20026;-59
2022/03/22 03:28:22;;;;;;;4.68;2.20;;;19.30;56.50;;;;;;5010837;28;20041;-59
2022/03/22 03:30:48;;;;;;;3.92;2.05;;;19.30;56.30;;;;;;5021337;28;20037;-59
2022/03/22 03:33:14;;;;;;;4.32;2.30;;;19.30;56.30;;;;;;5018888;28;20030;-59
2022/03/22 03:35:39;;;;;;;6.45;2.38;;;19.30;56.30;;;;;;5013650;28;20040;-59
2022/03/22 03:38:05;;;;;;;3.78;2.20;;;19.30;56.40;;;;;;5012770;28;20032;-59
2022/03/22 03:43:14;;;;;;;5.13;2.75;;;19.30;56.30;;;;;;5022473;28;20040;-59
2022/03/22 03:48:24;;;;;;;4.75;2.30;;;19.20;56.30;;;;;;5014601;28;20044;-59
2022/03/22 03:50:49;;;;;;;3.58;2.20;;;19.20;56.20;;;;;;5019381;28;20168;-59
2022/03/22 03:53:15;;;;;;;4.85;2.33;;;19.20;56.10;;;;;;5016564;28;20056;-59
2022/03/22 03:55:41;;;;;;;3.63;2.15;;;19.20;56.30;;;;;;5020692;28;20597;-59
2022/03/22 03:58:07;;;;;;;4.28;2.38;;;19.20;56.40;;;;;;5013740;28;20190;-59
2022/03/22 04:00:33;;;;;;;5.50;2.60;;;19.20;56.20;;;;;;5017767;28;20030;-59
2022/03/22 04:02:58;;;;;;;4.40;2.50;;;19.20;56.20;;;;;;5022712;28;20573;-59
2022/03/22 04:05:24;;;;;;;4.10;2.42;;;19.20;56.30;;;;;;5016435;28;21718;-59
2022/03/22 04:07:50;;;;;;;4.25;2.40;;;19.20;56.30;;;;;;5016775;28;20477;-59
2022/03/22 04:10:15;;;;;;;4.60;2.40;;;19.20;56.20;;;;;;5015423;28;20105;-59
2022/03/22 04:12:44;;;;;;;3.90;2.20;;;19.20;56.30;;;;;;5014873;28;20045;-59
2022/03/22 04:15:10;;;;;;;3.95;2.40;;;19.10;56.30;;;;;;5049892;28;20399;-59
2022/03/22 04:17:36;;;;;;;3.55;2.00;;;19.20;56.10;;;;;;5018082;28;20030;-59
2022/03/22 04:20:02;;;;;;;3.67;2.35;;;19.20;56.30;;;;;;5013708;28;20127;-59
2022/03/22 04:22:28;;;;;;;3.60;2.22;;;19.20;56.30;;;;;;5016727;28;20053;-59
2022/03/22 04:24:53;;;;;;;4.57;2.45;;;19.10;56.50;;;;;;5021641;28;20160;-59
2022/03/22 04:32:48;;;;;;;2.97;2.15;;;19.10;56.30;;;;;;5016337;28;20072;-59
2022/03/22 04:35:17;;;;;;;4.97;2.60;;;19.10;56.50;;;;;;5013698;28;20649;-59
2022/03/22 04:37:43;;;;;;;4.13;2.47;;;19.10;56.70;;;;;;5015418;28;20034;-59
2022/03/22 04:40:10;;;;;;;3.60;2.28;;;19.10;56.90;;;;;;5015082;28;20034;-59
2022/03/22 04:42:36;;;;;;;4.93;2.53;;;19.10;56.80;;;;;;5017581;28;20427;-59
2022/03/22 04:45:05;;;;;;;4.25;2.30;;;19.10;56.80;;;;;;5014045;28;20522;-59
2022/03/22 04:47:32;;;;;;;4.82;2.35;;;19.10;56.90;;;;;;5015733;28;20037;-59
2022/03/22 04:49:59;;;;;;;4.85;2.50;;;19.10;56.70;;;;;;5015444;28;20030;-59
2022/03/22 04:57:53;;;;;;;4.43;2.47;;;19.00;56.70;;;;;;5013840;28;20060;-59
2022/03/22 05:00:19;;;;;;;5.35;2.90;;;19.10;56.90;;;;;;5020763;28;20518;-59
2022/03/22 05:02:47;;;;;;;5.70;2.60;;;19.00;56.60;;;;;;5019733;28;20037;-59
2022/03/22 05:05:14;;;;;;;4.82;2.60;;;19.00;56.60;;;;;;5019751;28;20029;-59
2022/03/22 05:07:39;;;;;;;4.53;2.78;;;19.00;56.70;;;;;;5016008;28;20025;-59
2022/03/22 05:10:05;;;;;;;5.05;2.70;;;19.00;56.80;;;;;;5017465;28;20414;-59
2022/03/22 05:12:31;;;;;;;4.63;2.60;;;19.00;56.70;;;;;;5021381;28;20030;-59
2022/03/22 05:14:57;;;;;;;4.88;2.58;;;19.00;56.70;;;;;;5022636;28;22345;-59
2022/03/22 05:17:23;;;;;;;4.85;2.63;;;18.90;56.60;;;;;;5020332;28;20110;-59
2022/03/22 05:19:50;;;;;;;5.07;2.40;;;19.00;56.60;;;;;;5015320;28;20026;-59
2022/03/22 05:22:17;;;;;;;5.25;2.65;;;18.90;56.70;;;;;;5022315;28;20176;-59
2022/03/22 05:24:43;;;;;;;5.28;2.25;;;19.00;56.90;;;;;;5019004;28;20407;-59
2022/03/22 05:27:08;;;;;;;5.28;2.55;;;18.90;56.80;;;;;;5022520;28;20071;-59
2022/03/22 05:29:34;;;;;;;6.43;2.80;;;18.90;56.90;;;;;;5020364;28;20482;-59
2022/03/22 05:32:00;;;;;;;6.60;2.85;;;18.90;57.00;;;;;;5016154;28;20032;-59
2022/03/22 05:34:26;;;;;;;4.35;2.60;;;18.90;56.90;;;;;;5017797;28;20636;-59
2022/03/22 05:36:52;;;;;;;4.57;2.50;;;18.90;56.90;;;;;;5021412;28;20042;-59
2022/03/22 05:39:18;;;;;;;4.63;2.50;;;18.90;56.90;;;;;;5016629;28;20033;-59
2022/03/22 05:41:44;;;;;;;5.22;2.70;;;18.90;56.90;;;;;;5020035;28;20033;-59
2022/03/22 05:44:13;;;;;;;4.15;2.40;;;18.90;58.00;;;;;;5021295;28;20034;-59
2022/03/22 05:46:42;;;;;;;3.97;2.47;;;18.90;57.00;;;;;;5019418;28;20041;-59
2022/03/22 05:49:09;;;;;;;4.93;2.67;;;18.80;57.10;;;;;;5019296;28;20442;-59
2022/03/22 05:51:36;;;;;;;6.38;2.67;;;18.90;57.20;;;;;;5023467;28;20042;-59
2022/03/22 05:54:02;;;;;;;4.35;2.70;;;18.90;56.80;;;;;;5015569;28;20036;-58
2022/03/22 05:56:27;;;;;;;5.45;2.70;;;18.90;56.80;;;;;;5024251;28;20029;-59
2022/03/22 05:58:53;;;;;;;4.22;2.47;;;18.80;56.70;;;;;;5016021;28;20042;-59
2022/03/22 06:01:19;;;;;;;4.95;3.05;;;18.80;56.70;;;;;;5013404;28;20038;-59
2022/03/22 06:03:45;;;;;;;4.78;2.80;;;18.90;57.00;;;;;;5050313;28;20482;-59
2022/03/22 06:06:11;;;;;;;5.70;3.28;;;18.90;57.00;;;;;;5021319;28;20065;-59
2022/03/22 06:08:36;;;;;;;5.53;2.88;;;18.90;57.00;;;;;;5018619;28;20108;-59
2022/03/22 06:11:02;;;;;;;5.65;2.88;;;18.90;57.20;;;;;;5015469;28;20160;-59
2022/03/22 06:13:28;;;;;;;5.90;2.80;;;18.90;57.10;;;;;;5016809;28;20169;-59
2022/03/22 06:15:54;;;;;;;5.60;2.97;;;18.90;57.20;;;;;;5023684;28;20461;-59
2022/03/22 06:18:19;;;;;;;5.07;2.85;;;18.90;57.20;;;;;;5020174;28;20473;-59
2022/03/22 06:20:45;;;;;;;8.32;3.20;;;18.90;57.30;;;;;;5016429;28;20081;-59
2022/03/22 06:23:12;;;;;;;4.68;2.63;;;18.90;57.20;;;;;;5016614;28;20028;-59
2022/03/22 06:25:39;;;;;;;6.68;2.60;;;18.90;57.30;;;;;;5016599;28;20036;-59
2022/03/22 06:28:05;;;;;;;6.50;2.95;;;18.90;57.50;;;;;;5022136;28;20445;-60
2022/03/22 06:30:31;;;;;;;6.07;3.00;;;18.90;57.50;;;;;;5014042;28;20033;-60
2022/03/22 06:32:58;;;;;;;10.30;3.10;;;18.90;57.50;;;;;;5021791;28;20475;-59
2022/03/22 06:35:32;;;;;;;7.82;3.10;;;18.90;57.70;;;;;;5024387;28;20037;-59
2022/03/22 06:38:02;;;;;;;6.13;2.90;;;18.90;58.00;;;;;;5047058;28;20036;-59
2022/03/22 06:40:29;;;;;;;7.32;3.20;;;18.90;58.10;;;;;;5025701;28;20057;-59
2022/03/22 06:42:58;;;;;;;5.57;3.10;;;18.90;57.80;;;;;;5022795;28;20417;-59
2022/03/22 06:45:24;;;;;;;6.05;3.10;;;18.90;57.50;;;;;;5025572;28;20471;-59
2022/03/22 06:47:50;;;;;;;5.72;2.80;;;18.80;57.40;;;;;;5021544;28;20557;-59
2022/03/22 06:50:17;;;;;;;9.27;2.97;;;18.80;57.40;;;;;;5016433;28;20107;-59
2022/03/22 06:52:42;;;;;;;8.23;3.50;;;18.80;57.30;;;;;;5016357;28;20091;-60
2022/03/22 06:55:09;;;;;;;7.50;3.08;;;18.80;57.40;;;;;;5015542;28;20033;-59
2022/03/22 06:57:35;;;;;;;7.82;3.10;;;18.80;57.30;;;;;;5014463;28;20034;-60
2022/03/22 07:00:01;;;;;;;6.75;3.15;;;18.80;57.20;;;;;;5016066;28;20030;-60
2022/03/22 07:02:27;;;;;;;6.18;3.17;;;18.80;57.30;;;;;;5018738;28;20024;-59
2022/03/22 07:04:53;;;;;;;9.20;3.10;;;18.80;57.30;;;;;;5023845;28;20565;-60
2022/03/22 07:07:18;;;;;;;6.63;3.25;;;18.80;57.30;;;;;;5015817;28;20064;-60
2022/03/22 07:09:44;;;;;;;8.32;3.22;;;18.80;57.30;;;;;;5021592;28;20030;-59
2022/03/22 07:12:10;;;;;;;9.55;3.20;;;18.80;57.20;;;;;;5027296;28;20026;-59
2022/03/22 07:14:40;;;;;;;5.28;3.05;;;18.80;57.10;;;;;;5018663;28;20029;-59
2022/03/22 07:17:10;;;;;;;6.40;3.33;;;18.80;57.20;;;;;;5020563;28;20103;-59
2022/03/22 07:19:36;;;;;;;5.88;3.13;;;18.80;57.30;;;;;;5018653;28;20041;-59
2022/03/22 07:22:02;;;;;;;9.27;3.30;;;18.80;57.30;;;;;;5022160;28;20026;-59
2022/03/22 07:24:27;;;;;;;5.57;2.92;;;18.80;57.30;;;;;;5047792;28;20034;-60
2022/03/22 07:26:54;;;;;;;5.90;3.30;;;18.80;57.40;;;;;;5016283;28;20747;-59
2022/03/22 07:29:20;;;;;;;7.70;3.40;;;18.80;57.30;;;;;;5015581;28;20038;-60
2022/03/22 07:31:46;;;;;;;5.32;3.17;;;18.80;57.40;;;;;;5016051;28;20026;-59
2022/03/22 07:34:14;;;;;;;5.95;3.28;;;18.80;57.40;;;;;;5021156;28;20025;-60
2022/03/22 07:36:39;;;;;;;6.88;3.20;;;18.80;57.40;;;;;;5016677;28;20116;-60
2022/03/22 07:39:06;;;;;;;5.85;3.30;;;18.80;57.40;;;;;;5018979;28;20109;-60
2022/03/22 07:41:33;;;;;;;8.45;3.50;;;18.80;57.40;;;;;;5019970;28;20029;-60
2022/03/22 07:43:58;;;;;;;5.80;3.20;;;18.80;57.30;;;;;;5021566;28;20054;-60
2022/03/22 07:46:24;;;;;;;5.82;3.20;;;18.80;57.40;;;;;;5016002;28;20257;-60
2022/03/22 07:48:51;;;;;;;6.05;3.40;;;18.80;57.40;;;;;;5018217;28;20037;-60
2022/03/22 07:54:01;;;;;;;6.32;3.13;;;18.80;57.50;;;;;;5021628;28;20087;-60
2022/03/22 07:56:26;;;;;;;5.93;3.30;;;18.80;57.40;;;;;;5019666;28;20457;-59
2022/03/22 07:58:52;;;;;;;6.20;3.42;;;18.80;57.30;;;;;;5017190;28;22318;-59
2022/03/22 08:01:18;;;;;;;6.57;3.40;;;18.80;57.40;;;;;;5021746;28;20487;-59
2022/03/22 08:03:43;;;;;;;6.70;3.40;;;18.80;57.30;;;;;;5017637;28;20529;-59
2022/03/22 08:06:09;;;;;;;6.70;3.30;;;18.80;57.30;;;;;;5020213;28;20105;-59
2022/03/22 08:08:37;;;;;;;8.75;3.35;;;18.80;57.10;;;;;;5014952;28;20079;-59
2022/03/22 08:11:05;;;;;;;7.30;3.20;;;18.80;57.10;;;;;;5017224;28;20042;-59
2022/03/22 08:13:31;;;;;;;6.72;3.58;;;18.80;56.90;;;;;;5043938;28;20124;-59
2022/03/22 08:15:56;;;;;;;8.25;3.60;;;18.80;56.80;;;;;;5017517;28;20042;-59
2022/03/22 08:18:22;;;;;;;6.82;3.90;;;18.90;56.80;;;;;;5021111;28;20060;-60
2022/03/22 08:20:48;;;;;;;6.35;3.38;;;18.90;56.60;;;;;;5017338;28;20038;-59
2022/03/22 08:23:13;;;;;;;6.88;3.38;;;18.80;56.60;;;;;;5017911;28;20022;-59
2022/03/22 08:25:40;;;;;;;7.55;3.85;;;18.90;56.50;;;;;;5024203;28;20022;-60
2022/03/22 08:28:09;;;;;;;5.80;3.42;;;18.90;56.50;;;;;;5013973;28;20099;-60
2022/03/22 08:30:35;;;;;;;7.25;4.03;;;18.90;56.40;;;;;;5015929;28;20108;-59
2022/03/22 08:33:11;;;;;;;6.88;3.70;;;18.90;56.40;;;;;;5015793;28;20112;-59
2022/03/22 08:35:43;;;;;;;6.18;3.40;;;18.90;56.60;;;;;;5019406;28;20029;-60
2022/03/22 08:38:10;;;;;;;6.95;3.70;;;18.90;56.60;;;;;;5016494;28;20021;-59
2022/03/22 08:40:36;;;;;;;7.22;3.70;;;18.90;57.50;;;;;;5023201;28;20037;-59
2022/03/22 08:43:05;;;;;;;7.90;3.80;;;18.90;56.40;;;;;;5027671;28;20112;-59
2022/03/22 08:45:33;;;;;;;6.07;3.92;;;18.90;56.40;;;;;;5029705;28;20466;-59
2022/03/22 08:47:59;;;;;;;6.20;3.65;;;18.90;56.30;;;;;;5022992;28;20062;-59
2022/03/22 08:50:25;;;;;;;6.47;3.53;;;18.90;56.30;;;;;;5026713;28;20061;-59
2022/03/22 08:52:51;;;;;;;8.25;4.22;;;18.90;56.20;;;;;;5017583;28;20078;-59
2022/03/22 08:55:17;;;;;;;8.50;3.85;;;18.90;56.70;;;;;;5025540;28;20064;-58
2022/03/22 08:57:44;;;;;;;13.18;4.20;;;18.90;57.40;;;;;;5024152;28;20030;-60
2022/03/22 09:00:10;;;;;;;6.15;3.40;;;19.00;57.70;;;;;;5021160;28;20068;-60
2022/03/22 09:02:37;;;;;;;9.10;3.80;;;18.90;57.20;;;;;;5017917;28;20371;-60
2022/03/22 09:07:48;;;;;;;;;;;19.00;57.20;;;;;;5017883;28;20032;-60
2022/03/22 09:10:14;;;;;;;7.25;4.43;;;19.00;57.00;;;;;;5017642;28;20000;-60
2022/03/22 09:12:41;;;;;;;7.80;4.20;;;19.00;57.00;;;;;;5022557;28;20037;-60
2022/03/22 09:15:09;;;;;;;7.45;3.85;;;19.00;56.90;;;;;;5056990;28;20047;-60
2022/03/22 09:17:35;;;;;;;7.40;4.18;;;19.00;56.80;;;;;;5049359;28;20033;-60
2022/03/22 09:20:01;;;;;;;7.47;3.85;;;19.00;56.70;;;;;;5018899;28;20471;-60
2022/03/22 09:22:27;;;;;;;7.80;4.38;;;19.00;56.70;;;;;;5015672;28;20036;-60
2022/03/22 09:24:53;;;;;;;8.68;4.45;;;19.00;56.70;;;;;;5019667;28;20033;-60
2022/03/22 09:27:18;;;;;;;8.65;4.25;;;19.00;56.60;;;;;;5019378;28;20038;-60
2022/03/22 09:29:44;;;;;;;7.85;4.20;;;19.00;56.60;;;;;;5020142;28;20025;-59
2022/03/22 09:32:10;;;;;;;8.88;4.32;;;19.00;56.60;;;;;;5015870;28;20030;-60
2022/03/22 09:34:36;;;;;;;7.43;3.88;;;19.00;56.50;;;;;;5018959;28;20144;-59
2022/03/22 09:37:01;;;;;;;9.18;4.22;;;19.10;56.50;;;;;;5018106;28;20037;-60
2022/03/22 09:39:27;;;;;;;7.50;4.68;;;19.00;56.40;;;;;;5021730;28;20096;-60
2022/03/22 09:41:53;;;;;;;8.10;4.63;;;19.00;56.40;;;;;;5019376;28;20099;-60
2022/03/22 09:44:19;;;;;;;11.13;4.10;;;19.00;56.40;;;;;;5027095;28;20655;-59
2022/03/22 09:46:48;;;;;;;8.05;4.38;;;19.10;56.30;;;;;;5015843;28;20036;-60
2022/03/22 09:49:14;;;;;;;10.07;4.30;;;19.10;56.30;;;;;;5016387;28;20045;-60
2022/03/22 09:51:47;;;;;;;7.93;4.13;;;19.10;56.20;;;;;;5026105;28;20044;-60
2022/03/22 09:54:14;;;;;;;7.20;4.45;;;19.10;56.20;;;;;;5025246;28;20425;-60
2022/03/22 09:56:41;;;;;;;7.95;4.40;;;19.10;56.10;;;;;;5021429;28;20040;-59
2022/03/22 09:59:07;;;;;;;7.88;4.20;;;19.10;56.10;;;;;;5024207;28;20040;-60
2022/03/22 10:01:33;;;;;;;9.43;4.28;;;19.10;56.10;;;;;;5022108;28;20120;-60
2022/03/22 10:04:12;;;;;;;6.85;4.15;;;19.10;55.90;;;;;;5022028;28;20034;-60
2022/03/22 10:06:38;;;;;;;7.32;4.13;;;19.20;55.90;;;;;;5021381;28;20040;-60
2022/03/22 10:09:07;;;;;;;7.18;4.45;;;19.20;55.80;;;;;;5024078;28;20022;-60
2022/03/22 10:11:40;;;;;;;8.77;4.10;;;19.20;55.70;;;;;;5021951;28;20030;-60
2022/03/22 10:14:08;;;;;;;7.65;4.30;;;19.20;55.60;;;;;;5022871;28;20025;-60
2022/03/22 10:16:45;;;;;;;7.78;4.15;;;19.20;55.50;;;;;;5022485;28;20040;-60
2022/03/22 10:19:21;;;;;;;9.00;4.50;;;19.20;55.60;;;;;;5017129;28;20085;-60
2022/03/22 10:21:47;;;;;;;7.30;4.15;;;19.20;55.40;;;;;;5020279;28;22301;-59
2022/03/22 10:24:14;;;;;;;7.38;4.40;;;19.20;55.40;;;;;;5021433;28;20029;-59
2022/03/22 10:26:40;;;;;;;8.18;4.45;;;19.30;55.50;;;;;;5021433;28;20120;-60
2022/03/22 10:29:07;;;;;;;7.13;3.80;;;19.30;55.40;;;;;;5022525;28;20039;-60
2022/03/22 10:31:37;;;;;;;7.45;4.15;;;19.30;55.20;;;;;;5020028;28;20021;-59
2022/03/22 10:34:03;;;;;;;8.18;4.03;;;19.30;55.10;;;;;;5015432;28;20029;-60
2022/03/22 10:36:32;;;;;;;7.70;4.28;;;19.30;55.10;;;;;;5019544;28;20375;-59
2022/03/22 10:38:59;;;;;;;9.68;4.45;;;19.40;55.00;;;;;;5022625;28;20022;-60
2022/03/22 10:41:31;;;;;;;9.38;4.60;;;19.40;55.00;;;;;;5019179;28;20406;-59
2022/03/22 10:44:08;;;;;;;7.97;4.45;;;19.40;54.90;;;;;;5017232;28;20526;-60
2022/03/22 10:46:35;;;;;;;8.85;4.25;;;19.40;54.90;;;;;;5015837;28;20029;-60
2022/03/22 10:49:06;;;;;;;8.15;4.20;;;19.40;54.90;;;;;;5018092;28;20402;-60
2022/03/22 10:51:33;;;;;;;8.80;4.55;;;19.40;54.80;;;;;;5017670;28;20046;-60
2022/03/22 10:53:59;;;;;;;7.38;4.40;;;19.40;54.80;;;;;;5023995;28;20120;-59
2022/03/22 10:56:26;;;;;;;7.20;4.43;;;19.50;54.80;;;;;;5018591;28;20037;-60
2022/03/22 10:58:53;;;;;;;8.13;4.63;;;19.50;54.80;;;;;;5049665;28;20033;-60
2022/03/22 11:01:19;;;;;;;7.20;4.00;;;19.50;54.90;;;;;;5040599;28;20435;-60
2022/03/22 11:03:45;;;;;;;6.57;4.00;;;19.50;54.80;;;;;;5040489;28;20021;-60
2022/03/22 11:06:10;;;;;;;7.63;4.10;;;19.50;54.80;;;;;;5054558;28;20052;-59
2022/03/22 11:08:37;;;;;;;7.53;3.92;;;19.50;54.70;;;;;;5035103;28;20037;-59
2022/03/22 11:11:03;;;;;;;7.70;4.25;;;19.60;54.70;;;;;;5049469;28;20053;-59
2022/03/22 11:13:28;;;;;;;7.40;3.95;;;19.60;54.70;;;;;;5020610;28;20083;-60
2022/03/22 11:15:55;;;;;;;7.10;4.03;;;19.60;54.70;;;;;;5016489;28;20124;-60
2022/03/22 11:18:21;;;;;;;8.50;4.28;;;19.60;54.70;;;;;;5050322;28;20034;-60
2022/03/22 11:20:50;;;;;;;6.95;4.15;;;19.70;54.70;;;;;;5036086;28;20576;-60
2022/03/22 11:23:19;;;;;;;7.22;4.10;;;19.70;54.70;;;;;;5057023;28;20025;-60
2022/03/22 11:25:45;;;;;;;7.28;4.20;;;19.70;54.70;;;;;;5014590;28;20025;-59
2022/03/22 11:28:12;;;;;;;6.65;3.95;;;19.70;54.70;;;;;;5012261;28;20036;-59
2022/03/22 11:30:39;;;;;;;6.85;4.10;;;19.70;54.60;;;;;;5020533;28;20021;-59
2022/03/22 11:35:58;;;;;;;7.55;4.35;;;19.80;54.60;;;;;;5015794;28;20521;-60
2022/03/22 11:38:41;;;;;;;8.68;4.65;;;19.80;55.60;;;;;;5024446;28;20116;-60
2022/03/22 11:44:37;;;;;;;7.05;4.22;;;19.90;54.50;;;;;;5019446;28;20095;-60
2022/03/22 11:47:15;;;;;;;7.40;4.05;;;19.90;54.40;;;;;;5019476;28;20029;-59
2022/03/22 11:49:55;;;;;;;6.78;3.95;;;19.90;54.40;;;;;;5020203;28;20029;-59
2022/03/22 11:52:25;;;;;;;7.07;4.03;;;20.00;54.40;;;;;;5020289;28;20053;-60
2022/03/22 11:54:58;;;;;;;7.68;4.28;;;20.00;54.40;;;;;;5016329;28;20030;-60
2022/03/22 11:57:24;;;;;;;7.95;3.97;;;20.10;54.40;;;;;;5018093;28;20037;-59
2022/03/22 11:59:52;;;;;;;7.40;3.88;;;20.10;54.50;;;;;;5017857;28;20052;-59
2022/03/22 12:02:19;;;;;;;7.72;4.30;;;20.10;54.40;;;;;;5013580;28;20034;-60
2022/03/22 12:04:55;;;;;;;7.65;4.35;;;20.10;54.40;;;;;;5014540;28;20130;-59
2022/03/22 12:07:35;;;;;;;7.30;4.30;;;20.10;54.40;;;;;;5014723;28;20038;-59
2022/03/22 12:10:11;;;;;;;6.75;4.00;;;20.20;54.30;;;;;;5014286;28;20537;-59
2022/03/22 12:12:37;;;;;;;7.65;4.28;;;20.20;54.20;;;;;;5019175;28;20494;-59
2022/03/22 12:15:05;;;;;;;6.43;3.88;;;20.30;54.20;;;;;;5017052;28;20041;-59
2022/03/22 12:17:30;;;;;;;6.90;3.67;;;20.30;54.20;;;;;;5052077;28;20108;-59
2022/03/22 12:20:00;;;;;;;7.43;4.30;;;20.30;54.10;;;;;;5016003;28;20109;-59
2022/03/22 12:22:26;;;;;;;6.72;3.90;;;20.30;54.00;;;;;;5013333;28;20047;-59
2022/03/22 12:24:52;;;;;;;6.75;3.78;;;20.40;54.00;;;;;;5018619;28;20026;-60
2022/03/22 12:27:18;;;;;;;7.50;3.97;;;20.40;54.00;;;;;;5016579;28;20105;-59
2022/03/22 12:29:44;;;;;;;6.35;3.90;;;20.40;53.90;;;;;;5016446;28;20018;-60
2022/03/22 12:32:17;;;;;;;6.93;3.88;;;20.50;53.90;;;;;;5022572;28;20037;-59
2022/03/22 12:34:44;;;;;;;7.38;3.90;;;20.50;54.90;;;;;;5014347;28;20041;-60
2022/03/22 12:37:10;;;;;;;7.63;4.20;;;20.50;53.80;;;;;;5016946;28;20030;-59
2022/03/22 12:39:41;;;;;;;9.50;4.30;;;20.60;53.80;;;;;;5018649;28;20030;-60
2022/03/22 12:42:06;;;;;;;7.55;4.20;;;20.60;53.80;;;;;;5015467;28;20410;-59
2022/03/22 12:44:33;;;;;;;6.15;3.85;;;20.60;53.80;;;;;;5015567;28;20032;-59
2022/03/22 12:46:59;;;;;;;7.55;4.20;;;20.70;53.70;;;;;;5016064;28;20391;-59
2022/03/22 12:49:27;;;;;;;7.38;4.00;;;20.70;53.60;;;;;;5019909;28;20049;-59
2022/03/22 12:51:53;;;;;;;7.00;3.83;;;20.80;53.70;;;;;;5014834;28;20040;-59
2022/03/22 12:54:19;;;;;;;7.22;3.90;;;20.80;53.60;;;;;;5019474;28;20037;-59
2022/03/22 12:56:49;;;;;;;7.10;3.90;;;20.80;53.60;;;;;;5018986;28;20111;-59
2022/03/22 12:59:21;;;;;;;7.05;3.95;;;20.80;53.50;;;;;;5018961;28;20106;-59
2022/03/22 13:01:56;;;;;;;8.75;4.03;;;20.90;53.50;;;;;;5013733;28;20049;-59
2022/03/22 13:04:32;;;;;;;6.80;3.90;;;20.90;53.50;;;;;;5015177;28;20026;-60
2022/03/22 13:06:59;;;;;;;6.55;3.80;;;20.90;53.30;;;;;;5047349;28;20079;-60
2022/03/22 13:12:10;;;;;;;5.95;3.60;;;21.00;53.30;;;;;;5037165;28;20075;-59
2022/03/22 13:17:20;;;;;;;5.80;3.53;;;21.10;53.20;;;;;;5015871;28;20535;-59
2022/03/22 13:19:46;;;;;;;6.07;3.45;;;21.20;53.30;;;;;;5014020;28;20029;-59
2022/03/22 13:22:18;;;;;;;6.32;3.60;;;21.10;53.10;;;;;;5018504;28;20159;-60
2022/03/22 13:24:44;;;;;;;5.93;3.72;;;21.20;53.10;;;;;;5017513;28;20029;-60
2022/03/22 13:27:10;;;;;;;6.68;3.90;;;21.20;53.10;;;;;;5025057;28;20049;-60